22 | 02 | 2019

Daten Vortag

Wetterdaten von 10m Höhe gemessen, Station 2

Datum / Zeit Intervall min Luftfeuchte % Temperatur °C absolut Luftdruck hPa Wind m/s Windbö m/s Richtung Relative Luftdruck hPa Taupunkt °C Windchill °C Niederschlag mm
21-02-2019 00:09 5 79 7.9 1017.9 14.8 23.4 SW 1021.5 4.5 2.7 0.0
21-02-2019 00:12 5 78 7.9 1018.1 15.8 19.4 SW 1021.7 4.3 2.3 0.0
21-02-2019 00:17 5 78 7.9 1018.0 15.8 20.9 SSW 1021.6 4.3 2.3 0.0
21-02-2019 00:22 5 78 7.9 1018.0 13.3 15.8 SW 1021.6 4.3 3.3 0.0
21-02-2019 00:27 5 78 7.9 1017.9 15.8 18.4 SW 1021.5 4.3 2.3 0.0
21-02-2019 00:32 5 78 7.9 1018.0 13.3 17.3 SW 1021.6 4.3 3.3 0.0
21-02-2019 00:37 5 78 7.9 1018.0 12.2 17.3 SW 1021.6 4.3 3.8 0.0
21-02-2019 00:42 5 78 7.9 1018.1 11.2 12.2 SW 1021.7 4.3 4.3 0.0
21-02-2019 00:47 5 78 7.9 1018.1 13.3 18.4 SW 1021.7 4.3 3.3 0.0
21-02-2019 00:52 5 78 7.9 1018.0 11.2 14.8 SW 1021.6 4.3 4.3 0.0
21-02-2019 00:57 5 78 7.9 1018.1 13.3 18.4 SW 1021.7 4.3 3.3 0.0
21-02-2019 01:02 5 77 8.0 1017.9 12.2 15.8 SW 1021.5 4.2 3.9 0.0
21-02-2019 01:07 5 78 7.9 1017.9 11.2 13.3 SW 1021.5 4.3 4.3 0.0
21-02-2019 01:12 5 78 7.9 1018.0 9.7 12.2 SW 1021.6 4.3 5.1 0.0
21-02-2019 01:17 5 77 7.9 1017.9 13.3 15.8 SW 1021.5 4.1 3.3 0.0
21-02-2019 01:22 5 77 7.9 1017.9 11.2 15.8 SW 1021.5 4.1 4.3 0.0
21-02-2019 01:27 5 77 7.9 1017.9 9.7 12.2 SW 1021.5 4.1 5.1 0.0
21-02-2019 01:32 5 77 7.8 1017.9 9.7 12.2 SW 1021.5 4.0 5.0 0.0
21-02-2019 01:37 5 77 7.9 1017.9 12.2 15.8 SW 1021.5 4.1 3.8 0.0
21-02-2019 01:42 5 77 7.8 1017.9 9.7 12.2 SW 1021.5 4.0 5.0 0.0
21-02-2019 01:47 5 78 7.8 1017.8 11.2 18.4 SWW 1021.4 4.2 4.2 0.0
21-02-2019 01:52 5 78 7.8 1017.8 12.2 15.8 SW 1021.4 4.2 3.7 0.0
21-02-2019 01:57 5 78 7.8 1017.9 9.7 14.8 SW 1021.5 4.2 5.0 0.0
21-02-2019 02:02 5 78 7.8 1017.8 13.3 15.8 SW 1021.4 4.2 3.2 0.0
21-02-2019 02:07 5 78 7.9 1017.7 14.8 17.3 SW 1021.3 4.3 2.7 0.0
21-02-2019 02:12 5 77 7.9 1017.6 14.8 20.9 SW 1021.2 4.1 2.7 0.0
21-02-2019 02:17 5 77 7.9 1017.6 15.8 18.4 SWW 1021.2 4.1 2.3 0.0
21-02-2019 02:22 5 77 7.9 1017.7 14.8 17.3 SW 1021.3 4.1 2.7 0.0
21-02-2019 02:27 5 77 7.9 1017.7 13.3 15.8 SW 1021.3 4.1 3.3 0.0
21-02-2019 02:32 5 77 7.9 1017.6 13.3 14.8 SW 1021.2 4.1 3.3 0.0
21-02-2019 02:37 5 77 8.0 1017.5 12.2 14.8 SW 1021.1 4.2 3.9 0.0
21-02-2019 02:42 5 77 8.0 1017.5 12.2 15.8 SW 1021.1 4.2 3.9 0.0
21-02-2019 02:47 5 76 8.0 1017.5 11.2 13.3 SW 1021.1 4.0 4.4 0.0
21-02-2019 02:52 5 77 8.0 1017.5 15.8 19.4 SWW 1021.1 4.2 2.4 0.0
21-02-2019 02:57 5 77 8.0 1017.5 12.2 14.8 SW 1021.1 4.2 3.9 0.0
21-02-2019 03:02 5 77 8.0 1017.3 15.8 18.4 NW 1020.9 4.2 2.4 0.0
21-02-2019 03:07 5 77 8.0 1017.4 12.2 14.8 SW 1021.0 4.2 3.9 0.0
21-02-2019 03:12 5 77 8.0 1017.3 13.3 18.4 SWW 1020.9 4.2 3.4 0.0
21-02-2019 03:17 5 78 7.9 1017.3 17.3 20.9 W 1020.9 4.3 1.7 0.0
21-02-2019 03:22 5 78 7.9 1017.4 13.3 19.4 SWW 1021.0 4.3 3.3 0.0
21-02-2019 03:27 5 78 7.9 1017.4 11.2 15.8 NW 1021.0 4.3 4.3 0.0
21-02-2019 03:32 5 79 7.8 1017.3 11.2 13.3 SWW 1020.9 4.4 4.2 0.0
21-02-2019 03:37 5 79 7.8 1017.3 13.3 17.3 W 1020.9 4.4 3.2 0.0
21-02-2019 03:42 5 80 7.7 1017.2 18.4 24.5 SW 1020.8 4.5 1.1 0.0
21-02-2019 03:47 5 80 7.7 1017.3 13.3 18.4 W 1020.9 4.5 3.0 0.0
21-02-2019 03:52 5 80 7.7 1017.3 17.3 23.4 SW 1020.9 4.5 1.5 0.0
21-02-2019 03:57 5 81 7.7 1017.2 14.8 17.3 SW 1020.8 4.7 2.4 0.0
21-02-2019 04:02 5 81 7.7 1017.3 12.2 15.8 SW 1020.9 4.7 3.5 0.0
21-02-2019 04:07 5 81 7.7 1017.4 12.2 15.8 SW 1021.0 4.7 3.5 0.0
21-02-2019 04:12 5 81 7.6 1017.4 13.3 17.3 SW 1021.0 4.6 2.9 0.0
21-02-2019 04:17 5 81 7.5 1017.4 9.7 13.3 SWW 1021.0 4.5 4.6 0.0
21-02-2019 04:22 5 82 7.4 1017.5 13.3 18.4 SW 1021.1 4.5 2.7 0.0
21-02-2019 04:27 5 82 7.3 1017.5 12.2 15.8 SW 1021.1 4.4 3.1 0.0
21-02-2019 04:32 5 83 7.3 1017.5 11.2 13.3 SW 1021.1 4.6 3.6 0.0
21-02-2019 04:37 5 83 7.2 1017.4 12.2 14.8 SW 1021.0 4.5 3.0 0.0
21-02-2019 04:42 5 84 7.1 1017.3 9.7 12.2 SW 1020.9 4.6 4.2 0.0
21-02-2019 04:47 5 84 7.1 1017.4 8.6 11.2 SW 1021.0 4.6 4.8 0.0
21-02-2019 04:52 5 85 7.1 1017.3 7.2 11.2 SW 1020.9 4.8 5.8 0.3
21-02-2019 04:57 5 85 7.0 1017.4 9.7 12.2 SW 1021.0 4.7 4.1 0.3
21-02-2019 05:02 5 85 7.0 1017.5 9.7 13.3 SW 1021.1 4.7 4.1 0.3
21-02-2019 05:07 5 85 7.0 1017.3 5.0 7.2 SW 1020.9 4.7 7.0 0.3
21-02-2019 05:12 5 87 6.9 1017.3 12.2 15.8 SW 1020.9 4.9 2.6 0.3
21-02-2019 05:17 5 86 7.0 1017.3 9.7 13.3 SW 1020.9 4.8 4.1 0.3
21-02-2019 05:22 5 86 7.0 1017.3 11.2 13.3 SW 1020.9 4.8 3.3 0.3
21-02-2019 05:27 5 86 7.0 1017.2 11.2 13.3 SW 1020.8 4.8 3.3 0.3
21-02-2019 05:32 5 86 7.0 1017.3 12.2 13.3 SW 1020.9 4.8 2.7 0.3
21-02-2019 05:37 5 86 7.0 1017.3 9.7 12.2 SW 1020.9 4.8 4.1 0.3
21-02-2019 05:42 5 87 6.9 1017.3 8.6 11.2 SW 1020.9 4.9 4.6 0.3
21-02-2019 05:47 5 86 7.0 1017.1 12.2 15.8 SW 1020.7 4.8 2.7 0.3
21-02-2019 05:52 5 86 7.0 1017.2 12.2 14.8 SW 1020.8 4.8 2.7 0.0
21-02-2019 05:57 5 87 6.9 1017.1 8.6 11.2 SW 1020.7 4.9 4.6 0.3
21-02-2019 06:02 5 88 6.9 1017.1 12.2 14.8 SW 1020.7 5.1 2.6 0.3
21-02-2019 06:07 5 88 6.9 1017.1 12.2 14.8 SW 1020.7 5.1 2.6 0.3
21-02-2019 06:12 5 88 6.8 1017.1 11.2 14.8 SW 1020.7 5.0 3.0 0.6
21-02-2019 06:17 5 88 6.8 1017.0 7.2 9.7 SW 1020.6 5.0 5.5 0.6
21-02-2019 06:22 5 88 6.8 1017.1 9.7 14.8 SW 1020.7 5.0 3.8 0.9
21-02-2019 06:27 5 88 6.8 1017.1 11.2 13.3 SW 1020.7 5.0 3.0 0.9
21-02-2019 06:32 5 88 6.8 1017.0 7.2 9.7 SW 1020.6 5.0 5.5 0.9
21-02-2019 06:37 5 89 6.8 1017.1 7.2 9.7 SW 1020.7 5.1 5.5 0.9
21-02-2019 06:42 5 89 6.8 1017.0 9.7 12.2 SW 1020.6 5.1 3.8 0.9
21-02-2019 06:47 5 89 6.8 1017.1 12.2 14.8 SW 1020.7 5.1 2.5 0.9
21-02-2019 06:52 5 89 6.8 1017.2 8.6 11.2 SW 1020.8 5.1 4.5 0.9
21-02-2019 06:57 5 89 6.7 1017.2 12.2 15.8 SW 1020.8 5.0 2.4 0.6
21-02-2019 07:02 5 89 6.7 1017.2 12.2 15.8 SW 1020.8 5.0 2.4 0.6
21-02-2019 07:07 5 89 6.7 1017.2 14.8 17.3 SW 1020.8 5.0 1.2 0.6
21-02-2019 07:12 5 89 6.7 1017.2 13.3 20.9 SW 1020.8 5.0 1.9 0.3
21-02-2019 07:17 5 89 6.8 1017.2 12.2 14.8 SW 1020.8 5.1 2.5 0.3
21-02-2019 07:22 5 89 6.7 1017.2 9.7 14.8 SW 1020.8 5.0 3.7 0.0
21-02-2019 07:27 5 89 6.8 1017.3 11.2 14.8 SWW 1020.9 5.1 3.0 0.0
21-02-2019 07:32 5 89 6.8 1017.5 8.6 12.2 SW 1021.1 5.1 4.5 0.0
21-02-2019 07:37 5 89 6.7 1017.5 13.3 17.3 SW 1021.1 5.0 1.9 0.0
21-02-2019 07:42 5 90 6.7 1017.5 14.8 17.3 SW 1021.1 5.2 1.2 0.0
21-02-2019 07:47 5 90 6.8 1017.6 15.8 23.4 SWW 1021.2 5.3 0.9 0.0
21-02-2019 07:52 5 90 6.8 1017.4 8.6 167.8 NWW 1021.0 5.3 4.5 0.0
21-02-2019 07:57 5 90 6.8 1017.6 17.3 20.9 SW 1021.2 5.3 0.4 107.4
21-02-2019 08:02 5 90 6.8 1017.7 17.3 22.0 SWW 1021.3 5.3 0.4 107.4
21-02-2019 08:07 5 90 6.8 1017.6 15.8 20.9 NNW 1021.2 5.3 0.9 107.4
21-02-2019 08:12 5 90 6.8 1017.7 18.4 24.5 SWW 1021.3 5.3 0.0 107.4
21-02-2019 08:17 5 90 6.8 1017.8 15.8 19.4 SWW 1021.4 5.3 0.9 107.4
21-02-2019 08:22 5 90 6.8 1017.8 13.3 18.4 NW 1021.4 5.3 2.0 107.4
21-02-2019 08:27 5 90 6.8 1017.8 13.3 17.3 SWW 1021.4 5.3 2.0 107.4
21-02-2019 08:32 5 90 6.8 1017.9 14.8 15.8 SW 1021.5 5.3 1.3 107.4
21-02-2019 08:37 5 90 6.8 1017.9 9.7 14.8 SWW 1021.5 5.3 3.8 107.4
21-02-2019 08:42 5 89 6.8 1018.0 13.3 18.4 SW 1021.6 5.1 2.0 107.4
21-02-2019 08:47 5 89 6.8 1017.9 9.7 13.3 SW 1021.5 5.1 3.8 107.4
21-02-2019 08:52 5 89 6.8 1018.0 12.2 15.8 SW 1021.6 5.1 2.5 107.4
21-02-2019 08:57 5 89 6.9 1017.9 15.8 20.9 SW 1021.5 5.2 1.0 0.0
21-02-2019 09:02 5 87 7.3 1018.0 15.8 19.4 SW 1021.6 5.3 1.5 0.0
21-02-2019 09:07 5 86 7.4 1017.8 15.8 18.4 SW 1021.4 5.2 1.6 0.0
21-02-2019 09:12 5 86 7.3 1018.0 14.8 19.4 SW 1021.6 5.1 1.9 0.0
21-02-2019 09:17 5 85 7.3 1018.0 17.3 23.4 SW 1021.6 5.0 1.0 0.0
21-02-2019 09:22 5 85 7.4 1018.0 14.8 22.0 SW 1021.6 5.1 2.1 0.0
21-02-2019 09:27 5 85 7.5 1018.1 17.3 18.4 SW 1021.7 5.2 1.2 0.3
21-02-2019 09:32 5 85 7.9 1017.9 20.9 24.5 SW 1021.5 5.5 0.6 0.3
21-02-2019 09:37 5 85 8.1 1017.9 17.3 24.5 SW 1021.5 5.7 2.0 0.3
21-02-2019 09:42 5 84 8.0 1017.8 19.4 28.1 SW 1021.4 5.5 1.2 0.3
21-02-2019 09:47 5 84 8.0 1017.7 23.4 27.0 SWW 1021.3 5.5 0.0 0.3
21-02-2019 09:52 5 84 8.0 1017.5 27.0 30.6 SW 1021.1 5.5 -0.8 0.3
21-02-2019 09:57 5 85 8.1 1017.2 25.6 33.1 SW 1020.8 5.7 -0.3 0.3
21-02-2019 10:02 5 85 8.2 1017.4 28.1 34.2 SW 1021.0 5.8 -0.7 0.3
21-02-2019 10:07 5 85 8.2 1017.4 24.5 30.6 NW 1021.0 5.8 0.0 0.3
21-02-2019 10:12 5 83 8.2 1017.1 15.8 23.4 SWW 1020.7 5.5 2.6 0.3
21-02-2019 10:17 5 83 8.7 1017.2 24.5 30.6 SW 1020.8 6.0 0.7 0.3
21-02-2019 10:22 5 80 9.0 1017.1 23.4 28.1 NW 1020.7 5.7 1.4 0.3
21-02-2019 10:27 5 79 9.3 1017.2 20.9 25.6 SWW 1020.8 5.9 2.4 0.0
21-02-2019 10:32 5 78 9.4 1017.2 22.0 28.1 SW 1020.8 5.8 2.2 0.0
21-02-2019 10:37 5 78 9.5 1017.2 22.0 28.1 W 1020.8 5.9 2.4 0.0
21-02-2019 10:42 5 78 9.7 1017.4 29.5 34.2 SWW 1021.0 6.1 1.0 0.0
21-02-2019 10:47 5 77 9.3 1017.4 18.4 25.6 SWW 1021.0 5.5 3.1 0.0
21-02-2019 10:52 5 79 9.1 1017.5 28.1 34.2 SWW 1021.1 5.7 0.5 0.0
21-02-2019 10:57 5 79 9.1 1017.5 23.4 27.0 W 1021.1 5.7 1.5 0.0
21-02-2019 11:02 5 79 9.4 1017.7 18.4 24.5 NW 1021.3 6.0 3.3 0.0
21-02-2019 11:07 5 79 9.3 1017.7 11.2 13.3 W 1021.3 5.9 5.9 0.0
21-02-2019 11:12 5 79 9.2 1017.7 23.4 25.6 NW 1021.3 5.8 1.6 0.0
21-02-2019 11:17 5 79 9.2 1017.6 23.4 29.5 SWW 1021.2 5.8 1.6 0.0
21-02-2019 11:22 5 79 9.2 1017.6 19.4 28.1 W 1021.2 5.8 2.7 0.0
21-02-2019 11:27 5 79 9.3 1017.6 14.8 18.4 SWW 1021.2 5.9 4.4 0.0
21-02-2019 11:32 5 79 9.4 1017.8 18.4 23.4 NW 1021.4 6.0 3.3 0.0
21-02-2019 11:37 5 79 9.4 1017.7 19.4 24.5 SWW 1021.3 6.0 2.9 0.0
21-02-2019 11:42 5 79 9.3 1017.8 24.5 29.5 NW 1021.4 5.9 1.5 0.0
21-02-2019 11:47 5 79 9.4 1018.0 20.9 27.0 SWW 1021.6 6.0 2.5 0.0
21-02-2019 11:52 5 79 9.4 1018.2 12.2 15.8 W 1021.8 6.0 5.5 0.0
21-02-2019 11:57 5 80 9.4 1017.8 14.8 17.3 SW 1021.4 6.1 4.5 0.0
21-02-2019 12:02 5 80 9.5 1017.8 14.8 20.9 W 1021.4 6.2 4.6 0.0
21-02-2019 12:07 5 80 9.5 1017.7 14.8 20.9 W 1021.3 6.2 4.6 0.0
21-02-2019 12:12 5 80 9.7 1017.7 12.2 20.9 SWW 1021.3 6.4 5.9 0.0
21-02-2019 12:17 5 80 9.7 1017.7 13.3 15.8 SW 1021.3 6.4 5.4 0.0
21-02-2019 12:22 5 80 9.8 1017.7 19.4 23.4 NW 1021.3 6.5 3.4 0.0
21-02-2019 12:27 5 80 9.8 1017.7 17.3 24.5 NW 1021.3 6.5 4.1 0.0
21-02-2019 12:32 5 79 9.7 1017.8 19.4 24.5 W 1021.4 6.2 3.3 0.0
21-02-2019 12:37 5 79 9.6 1017.8 15.8 20.9 NW 1021.4 6.1 4.3 0.0
21-02-2019 12:40 5 79 9.6 1017.7 18.4 22.0 W 1021.3 6.1 3.5 0.0
21-02-2019 12:45 5 80 9.7 1017.9 18.4 23.4 W 1021.5 6.4 3.6 0.0
21-02-2019 12:50 5 79 9.7 1017.5 18.4 20.9 SW 1021.1 6.2 3.6 0.0
21-02-2019 12:55 5 79 9.7 1017.7 13.3 20.9 W 1021.3 6.2 5.4 0.0
21-02-2019 13:00 5 80 9.7 1017.6 14.8 19.4 SW 1021.2 6.4 4.8 0.0
21-02-2019 13:05 5 80 9.7 1017.7 14.8 17.3 SWW 1021.3 6.4 4.8 0.0
21-02-2019 13:10 5 80 9.8 1017.8 14.8 18.4 NW 1021.4 6.5 5.0 0.0
21-02-2019 13:15 5 80 9.7 1018.0 14.8 19.4 NW 1021.6 6.4 4.8 0.0
21-02-2019 13:20 5 81 9.7 1018.0 23.4 29.5 W 1021.6 6.6 2.3 0.0
21-02-2019 13:25 5 81 9.6 1018.0 17.3 19.4 W 1021.6 6.5 3.9 0.0
21-02-2019 13:30 5 83 9.4 1017.8 20.9 24.5 NW 1021.4 6.7 2.5 0.0
21-02-2019 13:35 5 84 9.3 1018.0 18.4 23.4 W 1021.6 6.7 3.1 0.0
21-02-2019 13:40 5 84 9.3 1017.9 19.4 25.6 W 1021.5 6.7 2.8 0.0
21-02-2019 13:45 5 84 9.3 1018.1 19.4 23.4 W 1021.7 6.7 2.8 0.0
21-02-2019 13:50 5 84 9.2 1018.3 23.4 28.1 NW 1021.9 6.6 1.6 0.0
21-02-2019 13:55 5 84 9.2 1018.2 19.4 23.4 W 1021.8 6.6 2.7 0.0
21-02-2019 14:00 5 84 9.1 1018.3 17.3 20.9 NW 1021.9 6.6 3.2 0.0
21-02-2019 14:05 5 84 9.1 1018.2 17.3 20.9 NW 1021.8 6.6 3.2 0.0
21-02-2019 14:10 5 86 8.8 1018.4 20.9 23.4 W 1022.0 6.6 1.8 0.0
21-02-2019 14:15 5 87 8.7 1018.5 14.8 17.3 N 1022.1 6.7 3.6 0.0
21-02-2019 14:20 5 88 8.5 1018.4 15.8 18.4 W 1022.0 6.6 3.0 0.3
21-02-2019 14:25 5 88 8.4 1018.3 17.3 20.9 NW 1021.9 6.5 2.4 0.6
21-02-2019 14:30 5 89 8.4 1018.3 18.4 23.4 W 1021.9 6.7 2.0 0.6
21-02-2019 14:35 5 90 8.4 1018.4 19.4 22.0 W 1022.0 6.9 1.7 0.6
21-02-2019 14:40 5 90 8.3 1018.4 17.3 20.9 W 1022.0 6.8 2.2 0.9
21-02-2019 14:45 5 91 8.3 1018.4 14.8 17.3 W 1022.0 6.9 3.2 1.2
21-02-2019 14:50 5 92 8.2 1018.5 12.2 13.3 W 1022.1 7.0 4.1 1.5
21-02-2019 14:55 5 92 8.2 1018.5 14.8 17.3 W 1022.1 7.0 3.0 1.5
21-02-2019 15:00 5 93 8.1 1018.4 17.3 20.9 W 1022.0 7.0 2.0 1.5
21-02-2019 15:05 5 93 8.1 1018.4 12.2 15.8 W 1022.0 7.0 4.0 1.5
21-02-2019 15:10 5 93 8.2 1018.4 14.8 17.3 W 1022.0 7.1 3.0 1.5
21-02-2019 15:15 5 93 8.4 1018.5 17.3 20.9 NW 1022.1 7.3 2.4 1.5
21-02-2019 15:20 5 92 8.5 1018.6 17.3 19.4 NW 1022.2 7.3 2.5 1.2
21-02-2019 15:25 5 91 8.6 1018.5 15.8 20.9 W 1022.1 7.2 3.1 0.9
21-02-2019 15:30 5 90 8.6 1018.6 17.3 22.0 W 1022.2 7.1 2.6 0.9
21-02-2019 15:35 5 90 8.6 1018.6 22.0 24.5 NW 1022.2 7.1 1.2 0.9
21-02-2019 15:40 5 89 8.6 1018.6 20.9 25.6 NW 1022.2 6.9 1.5 0.6
21-02-2019 15:45 5 89 8.6 1018.6 22.0 24.5 NW 1022.2 6.9 1.2 0.3
21-02-2019 15:50 5 89 8.6 1018.5 17.3 22.0 W 1022.1 6.9 2.6 0.0
21-02-2019 15:55 5 89 8.6 1018.3 18.4 22.0 W 1021.9 6.9 2.3 0.0
21-02-2019 16:00 5 89 8.7 1018.5 18.4 22.0 W 1022.1 7.0 2.4 0.0
21-02-2019 16:05 5 89 8.7 1018.5 20.9 28.1 NW 1022.1 7.0 1.6 0.0
21-02-2019 16:10 5 89 8.7 1018.5 18.4 23.4 W 1022.1 7.0 2.4 0.0
21-02-2019 16:15 5 89 8.7 1018.4 19.4 23.4 NW 1022.0 7.0 2.0 0.0
21-02-2019 16:20 5 89 8.7 1018.5 23.4 28.1 W 1022.1 7.0 1.0 0.0
21-02-2019 16:25 5 89 8.7 1018.5 22.0 25.6 W 1022.1 7.0 1.3 0.0
21-02-2019 16:30 5 89 8.6 1018.5 23.4 27.0 NW 1022.1 6.9 0.8 0.0
21-02-2019 16:35 5 89 8.6 1018.6 20.9 23.4 NW 1022.2 6.9 1.5 0.0
21-02-2019 16:40 5 89 8.6 1018.5 24.5 27.0 NW 1022.1 6.9 0.6 0.0
21-02-2019 16:45 5 90 8.6 1018.5 17.3 20.9 W 1022.1 7.1 2.6 0.0
21-02-2019 16:50 5 90 8.6 1018.6 15.8 19.4 W 1022.2 7.1 3.1 0.0
21-02-2019 16:55 5 90 8.6 1018.6 17.3 22.0 W 1022.2 7.1 2.6 0.0
21-02-2019 17:00 5 90 8.5 1018.6 15.8 20.9 NW 1022.2 7.0 3.0 0.0
21-02-2019 17:05 5 90 8.5 1018.6 17.3 19.4 NW 1022.2 7.0 2.5 0.0
21-02-2019 17:10 5 90 8.5 1018.7 23.4 28.1 W 1022.3 7.0 0.7 0.0
21-02-2019 17:15 5 90 8.5 1018.6 18.4 20.9 W 1022.2 7.0 2.1 0.0
21-02-2019 17:20 5 90 8.5 1018.6 13.3 15.8 NW 1022.2 7.0 4.0 0.0
21-02-2019 17:25 5 90 8.5 1018.7 19.4 23.4 W 1022.3 7.0 1.8 0.0
21-02-2019 17:30 5 90 8.5 1018.6 20.9 23.4 W 1022.2 7.0 1.4 0.0
21-02-2019 17:35 5 90 8.4 1018.6 20.9 22.0 NW 1022.2 6.9 1.2 0.0
21-02-2019 17:40 5 91 8.4 1018.6 27.0 30.6 W 1022.2 7.0 -0.2 0.0
21-02-2019 17:45 5 91 8.4 1018.7 20.9 23.4 NW 1022.3 7.0 1.2 0.0
21-02-2019 17:50 5 91 8.4 1018.7 22.0 27.0 NW 1022.3 7.0 0.9 0.0
21-02-2019 17:55 5 91 8.4 1018.7 24.5 30.6 W 1022.3 7.0 0.3 0.0
21-02-2019 18:00 5 91 8.4 1018.8 22.0 24.5 W 1022.4 7.0 0.9 0.0
21-02-2019 18:05 5 91 8.4 1018.7 22.0 24.5 W 1022.3 7.0 0.9 0.0
21-02-2019 18:10 5 90 8.4 1018.9 20.9 24.5 NW 1022.5 6.9 1.2 0.0
21-02-2019 18:15 5 90 8.4 1018.9 25.6 30.6 NW 1022.5 6.9 0.1 0.0
21-02-2019 18:20 5 90 8.4 1019.1 27.0 31.7 NNW 1022.7 6.9 -0.2 0.0
21-02-2019 18:25 5 90 8.4 1019.1 23.4 29.5 SWW 1022.7 6.9 0.6 0.0
21-02-2019 18:30 5 91 8.3 1019.2 22.0 27.0 NW 1022.8 6.9 0.8 0.0
21-02-2019 18:35 5 91 8.3 1019.0 20.9 25.6 W 1022.6 6.9 1.1 0.0
21-02-2019 18:40 5 91 8.3 1019.2 23.4 29.5 W 1022.8 6.9 0.4 0.0
21-02-2019 18:45 5 91 8.3 1019.1 24.5 30.6 W 1022.7 6.9 0.2 0.0
21-02-2019 18:50 5 91 8.2 1019.3 19.4 25.6 NW 1022.9 6.8 1.4 0.0
21-02-2019 18:55 5 91 8.2 1019.3 19.4 23.4 NW 1022.9 6.8 1.4 0.0
21-02-2019 19:00 5 92 8.1 1019.4 24.5 30.6 NW 1023.0 6.9 -0.1 0.0
21-02-2019 19:05 5 92 8.1 1019.4 22.0 29.5 NW 1023.0 6.9 0.6 0.0
21-02-2019 19:10 5 92 8.1 1019.3 23.4 27.0 NW 1022.9 6.9 0.2 0.0
21-02-2019 19:15 5 92 8.1 1019.4 20.9 23.4 W 1023.0 6.9 0.9 0.0
21-02-2019 19:20 5 92 8.1 1019.4 23.4 29.5 NW 1023.0 6.9 0.2 0.0
21-02-2019 19:25 5 92 8.1 1019.3 27.0 31.7 NW 1022.9 6.9 -0.7 0.0
21-02-2019 19:30 5 92 8.1 1019.4 24.5 29.5 W 1023.0 6.9 -0.1 0.0
21-02-2019 19:35 5 92 8.0 1019.5 23.4 25.6 W 1023.1 6.8 0.0 0.0
21-02-2019 19:40 5 92 8.0 1019.5 24.5 30.6 W 1023.1 6.8 -0.2 0.0
21-02-2019 19:45 5 92 8.0 1019.5 22.0 24.5 NW 1023.1 6.8 0.4 0.0
21-02-2019 19:50 5 92 8.0 1019.7 17.3 20.9 NW 1023.3 6.8 1.9 0.0
21-02-2019 19:55 5 92 8.0 1019.7 20.9 23.4 NW 1023.3 6.8 0.7 0.0
21-02-2019 20:00 5 92 8.0 1019.7 18.4 22.0 W 1023.3 6.8 1.5 0.0
21-02-2019 20:05 5 92 8.0 1019.8 24.5 29.5 NW 1023.4 6.8 -0.2 0.0
21-02-2019 20:10 5 92 8.0 1019.8 25.6 29.5 W 1023.4 6.8 -0.5 0.0
21-02-2019 20:15 5 92 8.0 1019.8 22.0 24.5 NW 1023.4 6.8 0.4 0.0
21-02-2019 20:20 5 92 8.0 1019.6 19.4 24.5 W 1023.2 6.8 1.2 0.0
21-02-2019 20:25 5 92 8.0 1019.6 19.4 27.0 W 1023.2 6.8 1.2 0.0
21-02-2019 20:30 5 92 8.0 1019.6 23.4 25.6 W 1023.2 6.8 0.0 0.0
21-02-2019 20:35 5 92 8.0 1019.8 20.9 25.6 W 1023.4 6.8 0.7 0.0
21-02-2019 20:40 5 92 8.0 1019.9 23.4 27.0 NW 1023.5 6.8 0.0 0.0
21-02-2019 20:45 5 92 8.0 1020.0 20.9 24.5 W 1023.6 6.8 0.7 0.0
21-02-2019 20:50 5 92 8.0 1020.1 24.5 27.0 NW 1023.7 6.8 -0.2 0.0
21-02-2019 20:55 5 92 8.0 1020.1 22.0 24.5 W 1023.7 6.8 0.4 0.0
21-02-2019 21:00 5 92 8.0 1020.4 24.5 29.5 NW 1024.0 6.8 -0.2 0.0
21-02-2019 21:05 5 93 7.9 1020.4 30.6 35.6 NW 1024.0 6.8 -1.6 0.0
21-02-2019 21:10 5 93 7.9 1020.6 20.9 24.5 NW 1024.2 6.8 0.6 0.0
21-02-2019 21:15 5 93 7.9 1020.6 27.0 29.5 NW 1024.2 6.8 -0.9 0.0
21-02-2019 21:20 5 93 7.9 1020.7 27.0 30.6 NW 1024.3 6.8 -0.9 0.0
21-02-2019 21:25 5 93 7.9 1020.8 19.4 25.6 NW 1024.4 6.8 1.0 0.0
21-02-2019 21:30 5 93 7.8 1020.9 23.4 31.7 NW 1024.5 6.7 -0.2 0.0
21-02-2019 21:35 5 94 7.8 1021.1 22.0 29.5 NWW 1024.7 6.9 0.2 0.0
21-02-2019 21:40 5 94 7.8 1021.0 22.0 28.1 NW 1024.6 6.9 0.2 0.0
21-02-2019 21:45 5 93 7.7 1021.1 22.0 25.6 NWW 1024.7 6.6 0.0 0.0
21-02-2019 21:50 5 94 7.6 1021.3 18.4 22.0 NWW 1024.9 6.7 1.0 0.0
21-02-2019 21:55 5 94 7.5 1021.4 14.8 20.9 NW 1025.0 6.6 2.2 0.0
21-02-2019 22:00 5 94 7.5 1021.3 23.4 28.1 NW 1024.9 6.6 -0.6 0.0
21-02-2019 22:05 5 95 7.4 1021.3 23.4 28.1 NW 1024.9 6.7 -0.7 0.0
21-02-2019 22:10 5 95 7.4 1021.4 20.9 28.1 NW 1025.0 6.7 0.0 0.3
21-02-2019 22:15 5 95 7.4 1021.5 27.0 33.1 NW 1025.1 6.7 -1.6 0.3
21-02-2019 22:20 5 95 7.3 1021.7 23.4 27.0 NWW 1025.3 6.6 -0.9 0.3
21-02-2019 22:25 5 96 7.3 1021.6 29.5 35.6 NWW 1025.2 6.7 -2.3 0.3
21-02-2019 22:30 5 96 7.3 1021.7 19.4 25.6 NW 1025.3 6.7 0.3 0.3
21-02-2019 22:35 5 96 7.3 1021.9 23.4 27.0 NW 1025.5 6.7 -0.9 0.3
21-02-2019 22:40 5 96 7.3 1022.0 25.6 29.5 NW 1025.6 6.7 -1.4 0.6
21-02-2019 22:45 5 96 7.3 1021.9 17.3 23.4 NWW 1025.5 6.7 1.0 0.6
21-02-2019 22:50 5 96 7.4 1022.1 25.6 29.5 NW 1025.7 6.8 -1.3 0.6
21-02-2019 22:55 5 96 7.4 1022.1 23.4 29.5 NW 1025.7 6.8 -0.7 0.6
21-02-2019 23:00 5 96 7.3 1022.2 27.0 30.6 NW 1025.8 6.7 -1.7 0.6
21-02-2019 23:05 5 96 7.3 1022.1 24.5 29.5 NW 1025.7 6.7 -1.1 0.6
21-02-2019 23:10 5 97 7.3 1022.2 19.4 22.0 NWW 1025.8 6.9 0.3 0.3
21-02-2019 23:15 5 97 7.3 1022.3 17.3 20.9 NW 1025.9 6.9 1.0 0.3
21-02-2019 23:20 5 97 7.3 1022.5 22.0 25.6 NW 1026.1 6.9 -0.5 0.3
21-02-2019 23:25 5 97 7.2 1022.5 15.8 20.9 NW 1026.1 6.8 1.4 0.3
21-02-2019 23:30 5 97 7.2 1022.5 15.8 22.0 NWW 1026.1 6.8 1.4 0.3
21-02-2019 23:35 5 97 7.2 1022.5 18.4 20.9 NW 1026.1 6.8 0.5 0.3
21-02-2019 23:40 5 97 7.2 1022.5 13.3 17.3 NWW 1026.1 6.8 2.4 0.0
21-02-2019 23:45 5 97 7.1 1022.7 14.8 17.3 NW 1026.3 6.7 1.7 0.0
21-02-2019 23:50 5 97 7.1 1022.8 17.3 20.9 NW 1026.4 6.7 0.7 0.0
21-02-2019 23:55 5 97 7.1 1023.0 15.8 18.4 NW 1026.6 6.7 1.3 0.0

                                                                              Tabelle: 07 : 00 UHR

STATIONHÖHELUFTD.TEMP.T-MinT-MaxU%RR1RR12SSSDDFFFXWetter+WolkenBöen
UFS TW Ems 0 ------ --- --- --- --- ---- --- --- -- --- --- --- ---
UFS Deutsche Bucht 0 1020.7 6.0 6.0 6.7 96 ---- --- --- SW 29 --- --- ---
Helgoland 4 1020.7 6.0 5.9 6.7 92 0.0 1 0 -- --- --- Regen ---
List/Sylt 26 1018.6 6.0 5.7 6.1 94 0.0 1 0 SW 27 40 Regen ---
Schleswig 43 1019.9 6.0 5.9 7.0 95 0.0 1 0 SW 18 33 leichter Regen ---
Leuchtturm Kiel 5 1019.4 6.8 6.7 7.9 89 ---- --- --- SW 37 47 --- ---
Kiel 27 1020.0 6.8 6.7 8.2 89 0.0 0 0 W 15 30 Regen ---
Fehmarn 3 1019.5 5.7 5.6 6.8 94 0.3 2 0 SW 19 27 Regen ---
Arkona 42 1018.5 5.5 5.1 6.2 98 1.1 9 0 W 46 57 leichter Regen Windböen
Norderney 11 1021.7 6.2 6.1 8.0 91 0.0 0 0 SW 23 37 --- ---
Leuchtt. Alte Weser 32 1020.8 6.2 6.2 8.9 91 ---- --- --- SW 36 --- --- ---
Cuxhaven 5 1021.1 7.2 7.2 9.3 82 0.0 0 0 SW 15 31 --- ---
Hamburg-Flh. 11 1021.5 7.7 7.4 8.9 75 0.0 0 0 SW 16 25 Regen ---
Schwerin 59 1021.4 6.4 6.3 7.9 89 0.5 1 0 SW 15 20 Regen ---
Rostock 4 1020.3 6.9 6.8 8.0 90 1.3 3 0 SW 16 30 leichter Regen ---
Greifswald 2 1020.1 6.7 6.7 7.5 91 0.4 3 0 W 14 29 leichter Regen ---
Emden 0 1022.3 6.2 5.9 9.6 85 0.0 0 0 SW 15 25 Regen ---
Bremen-Flh. 5 1022.8 6.9 6.4 9.0 83 0.0 0 0 SW 17 26 stark bewölkt ---
Lüchow 17 1022.6 6.5 6.1 8.4 83 0.0 0 0 SW 10 16 leichter Regen ---
Marnitz 81 1021.8 6.4 6.4 7.9 83 0.2 0 0 W 11 25 leichter Regen ---
Waren 70 1021.6 7.0 5.2 8.0 81 0.1 0 0 SW 12 22 Regen ---
Neuruppin 38 1022.6 6.2 5.9 8.2 85 0.0 1 --- SW 6 20 --- ---
Angermünde 56 1022.2 6.6 6.5 8.4 80 0.2 0 0 W 13 26 leichter Regen ---
Münster/Osnabr.-Flh. 48 1024.8 4.3 3.8 9.6 89 0.0 0 0 S 9 16 gering bewölkt ---
Hannover-Flh. 59 1023.7 7.6 7.1 8.9 75 0.0 0 0 W 14 26 bedeckt ---
Magdeburg 76 1024.1 6.6 6.2 8.4 77 0.0 0 0 SW 6 17 leichter Regen ---
Potsdam 81 1023.5 5.4 5.1 7.5 89 0.1 0 0 SW 15 25 leichter Regen ---
Berlin-Tegel 37 1023.2 6.2 4.5 8.8 82 0.2 0 0 W 12 24 leichter Regen ---
Berlin-Tempelhof 48 1023.4 6.5 6.2 9.3 81 0.3 0 --- SW 8 17 --- ---
Berlin-Dahlem 51 1023.2 6.2 5.7 8.7 --- ---- 0 0 SW 11 --- leichter Regen ---
Lindenberg 91 1023.7 5.6 4.8 8.3 80 0.1 0 0 SW 14 22 leichter Regen ---
Düsseldorf-Flh. 45 1025.9 4.2 3.6 8.7 85 0.0 0 0 S 10 21 gering bewölkt ---
Essen 150 1025.9 5.6 4.5 8.7 84 0.0 0 0 SW 12 20 --- ---
Kahler Asten 839 ------ 1.4 1.4 2.8 96 0.0 0 26 W 22 29 Nebel ---
Bad Lippspringe 157 1025.3 5.1 4.4 7.2 84 0.0 0 0 SW 5 10 --- ---
Fritzlar 174 1027.1 0.1 -0.5 7.3 95 ---- 0 0 - 4 --- bewölkt ---
Brocken 1142 ------ -0.1 -0.7 0.0 100 ---- 0 --- W 61 75 --- Sturmböen
Leipzig-Flh. 142 1025.1 5.1 3.5 7.6 79 0.0 0 0 SW 18 22 stark bewölkt ---
Dresden-Flh. 227 1025.5 5.5 4.1 6.7 76 0.0 0 0 SW 14 22 bedeckt ---
Cottbus 69 1024.2 4.9 3.9 7.9 81 0.0 0 0 SW 11 15 Regen ---
Görlitz 238 1025.3 3.8 2.9 6.9 82 0.0 0 0 SW 13 17 --- ---
Aachen 231 1026.3 6.7 4.6 7.5 81 0.0 0 0 SW 12 18 --- ---
Nürburg 485 1027.7 3.1 1.1 5.6 93 0.0 0 0 SW 7 10 Dunst oder flacher Nebel ---
Köln/Bonn-Flh. 92 1026.9 3.7 3.5 7.7 86 0.0 0 0 O 8 11 bewölkt ---
Gießen/Wettenberg 203 1027.8 0.4 -0.3 7.8 98 0.0 0 0 S 3 5 --- ---
Wasserkuppe 921 ------ 1.0 0.8 1.9 99 0.0 0 38 W 18 31 Dunst oder flacher Nebel ---
Meiningen 450 1028.5 -0.3 -0.5 6.0 97 0.0 0 0 S 5 12 Dunst oder flacher Nebel ---
Erfurt 316 1026.5 3.5 2.6 6.9 86 0.0 0 0 SW 15 20 bewölkt ---
Gera 311 1026.6 3.1 2.6 6.9 85 0.0 0 0 S 8 14 --- ---
Fichtelberg 1213 ------ -1.4 -2.0 -1.3 97 ---- --- --- W 39 51   Windböen
Trier 265 1028.1 3.3 2.4 7.8 92 0.0 0 0 S 6 9 --- ---
Hahn-Flh. 497 1027.8 4.4 3.6 6.1 91 0.0 0 0 SW 8 12 --- ---
Frankfurt/M-Flh. 112 1028.3 0.0 -1.0 8.3 96 0.0 0 0 SW 6 25 bewölkt ---
OF-Wetterpark 119 1028.1 0.5 -0.2 7.7 96 0.0 0 0 O 2 4 Dunst oder flacher Nebel ---
Würzburg 268 1028.9 1.5 0.8 8.5 93 0.0 0 0 S 6 11 Dunst oder flacher Nebel ---
Bamberg 239 1029.0 -2.1 -2.3 4.4 95 0.0 0 0 - 0 6 --- ---
Hof 567 1027.7 2.5 -0.5 3.7 87 0.0 0 0 SW 5 17 --- ---
Weiden 438 1029.4 -0.5 -0.7 4.8 98 0.0 0 0 N 2 6 Dunst oder flacher Nebel ---
Saarbrücken-Flh. 320 1028.8 1.4 0.3 6.8 97 0.0 0 0 SO 2 8 Nebel ---
Karlsruhe-Rheinst. 116 1028.9 -0.3 -1.1 7.2 97 0.0 0 0 W 4 8 Dunst oder flacher Nebel ---
Mannheim 96 1028.1 4.5 -0.5 9.8 84 0.0 0 0 S 9 14 --- ---
Stuttgart-Flh. 371 1030.0 -0.2 -0.6 8.4 96 0.0 0 0 O 2 4 bewölkt ---
Öhringen 276 1028.9 1.7 0.6 7.0 92 0.0 0 0 O 5 9 --- ---
Nürnberg-Flh. 314 1029.2 -0.2 -1.5 7.0 94 0.0 0 0 O 10 13 bewölkt ---
Regensburg 366 1029.7 -0.4 -0.8 5.2 97 0.0 0 0 S 4 7 Dunst oder flacher Nebel ---
Straubing 351 1029.8 -0.6 -1.1 5.3 97 0.0 0 0 N 3 5 Nebel ---
Großer Arber 1436 ------ -1.7 -2.0 -1.2 98 ---- --- 248 W 27 37 gefrierender Nebel ---
Lahr 155 1029.2 0.5 0.0 8.1 97 0.0 0 0 SW 3 8 Dunst oder flacher Nebel ---
Freudenstadt 797 ------ 3.2 1.6 5.4 92 0.0 0 11 W 13 20 Dunst oder flacher Nebel ---
Stötten 734 1028.6 4.6 3.6 5.6 80 0.0 0 45 W 14 19 --- ---
Augsburg 462 1030.0 0.2 -0.6 6.3 92 0.0 0 0 S 7 9 Dunst oder flacher Nebel ---
München-Flh. 444 1029.4 2.8 -0.1 7.5 91 0.0 0 0 SW 9 11 stark bewölkt ---
Fürstenzell 476 1029.0 2.6 1.5 5.7 98 0.0 0 6 S 7 9 Dunst oder flacher Nebel ---
Feldberg/Schw. 1486 ------ 3.2 1.3 3.3 58 ---- --- 122 W 19 21 wolkenlos ---
Konstanz 443 1030.9 0.2 0.0 6.9 97 0.0 0 0 NW 5 11 Nebel ---
Kempten 705 1031.5 -1.1 -1.3 3.2 87 0.0 0 6 SO 5 10 --- ---
Oberstdorf 806 ------ -2.7 -3.8 3.0 89 0.0 0 58 SO 5 10 --- ---
Zugspitze 2960 ------ -9.3 -10.1 -8.0 69 ---- --- 400 NW 21 42 --- ---
Hohenpeißenberg 977 ------ 3.9 3.9 5.2 68 0.0 0 35 W 16 26 wolkenlos ---

                                                                                                  Tabelle: 19 : 00 UHR  

STATIONHÖHELUFTD.TEMP.T-MinT-MaxU%RR1RR12SSSDDFFFXWetter+WolkenBöen
UFS TW Ems 0 ------ --- --- --- --- ---- --- --- -- --- --- --- ---
UFS Deutsche Bucht 26 1025.2 6.2 5.9 6.8 99 ---- --- --- W 25 --- --- ---
Helgoland 4 1024.8 6.1 5.8 6.4 98 0.1 0 0 -- --- --- --- ---
List/Sylt 26 1024.0 5.8 5.8 6.9 98 0.0 0 0 NW 22 28 Nebel ---
Schleswig 43 1023.5 6.6 5.9 7.8 100 0.0 1 0 W 16 26 Nebel ---
Leuchtturm Kiel 5 1022.7 6.9 6.5 7.7 97 ---- --- --- W 33 37 --- ---
Kiel 27 1023.1 7.0 6.7 8.0 97 0.1 1 0 W 18 31 Dunst oder flacher Nebel ---
Fehmarn 3 1022.4 5.8 5.6 6.7 97 0.0 0 0 W 27 32 Dunst oder flacher Nebel ---
Arkona 42 1020.7 5.2 5.2 6.6 100 0.1 3 0 W 27 44 Regen ---
Norderney 11 1026.2 6.5 6.2 8.1 98 0.0 0 0 W 18 27 --- ---
Leuchtt. Alte Weser 32 1024.9 5.8 5.8 7.1 100 ---- --- --- W 32 --- --- ---
Cuxhaven 5 1024.9 6.6 6.6 8.5 98 0.1 1 0 W 20 35 Regen ---
Hamburg-Flh 11 1024.3 8.1 7.5 9.3 94 0.1 1 0 W 19 30 leichter Regen ---
Schwerin 59 1023.2 8.3 6.2 10.2 92 0.0 1 0 W 19 35 Regen ---
Rostock 4 1022.1 6.2 5.8 9.0 97 0.1 2 0 W 27 39 Regen ---
Greifswald 2 1021.2 7.7 6.7 9.1 96 0.2 3 0 W 20 29 leichter Regen ---
Emden 0 1026.3 8.1 6.1 10.1 97 0.3 1 0 W 16 23 Regen ---
Bremen-Flh. 5 1025.8 8.9 5.2 11.6 97 0.1 0 0 W 17 24 leichter Regen ---
Lüchow 17 1024.2 9.7 6.4 12.2 84 0.0 0 0 W 15 26 leichter Regen ---
Marnitz 81 1022.9 8.3 6.2 10.9 93 0.1 1 0 NW 17 30 leichter Regen ---
Waren 70 1022.5 8.0 6.2 9.9 94 0.1 2 0 W 18 28 Regen ---
Neuruppin 38 1023.0 8.7 6.1 10.9 92 0.9 2 --- W 10 21 --- ---
Angermünde 56 1021.7 8.4 6.3 10.1 89 0.1 2 0 W 23 31 leichter Regen ---
Münster/Osnabr.-Flh. 48 1027.2 10.4 4.4 11.8 78 0.0 0 0 W 13 19 stark bewölkt ---
Hannover-Flh. 59 1026.0 8.7 6.7 11.6 96 0.0 0 0 W 15 24 leichter Regen ---
Magdeburg 76 1024.6 9.8 6.5 12.3 79 0.0 0 0 W 13 31 Regen ---
Potsdam 81 1023.3 9.3 5.3 11.1 81 0.0 1 0 W 18 28 leichter Regen ---
Berlin-Tegel 37 1022.9 9.5 6.1 10.8 82 0.2 1 0 W 13 21 leichter Regen ---
Berlin-Tempelhof 48 1022.8 10.3 6.4 10.9 75 0.0 1 --- W 15 24 --- ---
Berlin-Dahlem 51 1022.8 10.0 6.2 10.6 --- ---- 1 0 W 18 --- bedeckt ---
Lindenberg 91 1022.7 8.1 4.8 9.9 87 0.0 2 0 W 15 27 Regen ---
Düsseldorf-Flh. 45 1028.7 11.1 3.9 13.2 74 0.0 0 0 W 21 30 Regen ---
Essen 150 1028.3 10.4 5.3 12.2 73 0.0 0 0 W 9 23 Regen ---
Kahler Asten 839 ------ 4.2 1.4 5.1 88 0.0 0 23 W 28 40 Dunst oder flacher Nebel ---
Bad Lippspringe 157 1027.0 10.0 4.8 10.8 71 0.0 0 0 W 10 17 Niederschlag ---
Fritzlar 174 1027.5 8.7 -0.4 11.9 83 ---- 0 0 SW 7 --- stark bewölkt ---
Brocken 1142 ------ 1.8 -0.1 1.8 100 ---- 1 174 W 48 62 Nebel Windböen
Leipzig-Flh. 142 1025.2 9.3 5.1 11.8 74 0.0 0 0 W 19 26 bedeckt ---
Dresden-Flh. 227 1025.2 8.0 5.4 9.6 80 0.2 1 0 W 10 28 leichter Regen ---
Cottbus 69 1023.4 7.8 4.9 10.4 89 0.2 2 0 W 11 20 Regen ---
Görlitz 238 1024.4 7.0 3.8 8.3 85 0.3 2 0 W 10 26 Regen ---
Aachen 231 1029.1 9.7 6.7 12.3 84 0.2 0 0 SW 10 22 Regen ---
Nürburg 485 1029.0 9.1 2.5 11.1 73 0.0 0 0 SW 8 13 --- ---
Köln/Bonn-Flh. 92 1028.9 10.2 2.2 13.9 77 0.0 0 0 SW 3 6 Regen ---
Gießen/Wettenberg 203 1028.0 9.7 0.3 11.8 76 0.0 0 0 -- 6 18 --- ---
Wasserkuppe 921 ------ 2.8 0.9 3.5 100 0.3 1 37 W 20 28 leichter Regen ---
Meiningen 450 1028.4 7.5 -0.9 8.7 80 0.0 0 0 W 7 28 leichter Regen ---
Erfurt 316 1026.9 7.9 3.5 10.7 79 0.0 0 0 W 19 25 stark bewölkt ---
Gera 311 1026.5 8.0 2.7 9.8 74 0.1 0 0 SW 14 21 Regen ---
Fichtelberg 1213 ------ 0.2 -1.4 1.3 98 ---- --- --- W 49 67   Sturmböen
Trier 265 1029.3 10.8 2.5 14.1 68 0.0 0 0 S 5 14 Regen ---
Hahn-Flh. 497 1029.2 8.2 4.3 10.7 82 0.0 0 0 SW 9 14 --- ---
Frankfurt/M-Flh. 112 1028.8 9.7 -0.1 12.1 83 0.1 0 0 S 6 25 Regenschauer ---
OF-Wetterpark 119 1028.7 10.2 0.2 12.2 76 0.0 0 0 SW 7 12 Regen ---
Würzburg 268 1029.1 8.9 1.4 11.7 68 0.0 0 0 W 7 12 --- ---
Bamberg 239 1028.5 7.6 -2.7 11.7 74 0.0 0 0 S 4 7 --- ---
Hof 567 1027.5 5.9 2.2 7.0 82 0.0 0 0 W 12 23 Regen ---
Weiden 438 1028.0 7.4 -0.7 9.3 68 0.0 0 0 SW 8 14 --- ---
Saarbrücken-Flh. 320 1029.6 10.4 0.5 13.8 66 0.0 0 0 W 6 15 Regen ---
Karlsruhe-Rheinst. 116 1029.4 11.5 -0.6 14.7 68 0.0 0 0 W 10 20 --- ---
Mannheim 96 1029.1 10.7 4.2 13.0 67 0.0 0 0 O 3 5 --- ---
Stuttgart-Flh. 371 1029.5 9.1 -1.0 14.4 68 0.0 0 0 S 3 5 bewölkt ---
Öhringen 276 1029.3 8.3 1.3 11.5 77 0.0 0 0 SO 6 8 --- ---
Nürnberg-Flh. 314 1028.7 8.0 -1.0 10.9 72 0.0 0 0 SW 7 11 stark bewölkt ---
Regensburg 366 1028.5 8.6 -0.7 12.7 69 0.0 0 0 W 9 15 --- ---
Straubing 351 1028.3 8.6 -1.2 11.5 75 0.0 0 0 W 8 12 --- ---
Großer Arber 1436 ------ -0.3 -1.8 0.2 99 ---- --- 247 W 42 58 gefrierender Nebel Windböen
Lahr 155 1029.6 10.1 -0.2 16.2 73 0.0 0 0 O 4 12 --- ---
Freudenstadt 797 ------ 6.2 2.3 11.1 71 0.0 0 9 W 13 19 --- ---
Stötten 734 1029.7 5.9 3.8 8.3 79 0.0 0 42 NW 15 20 wolkenlos ---
Augsburg 462 1028.7 9.5 -0.7 13.2 70 0.0 0 0 NO 5 11 --- ---
München-Flh. 444 1028.4 9.5 -0.3 12.5 72 0.0 0 0 NW 4 9 leichter Regen ---
Fürstenzell 476 1027.9 7.6 2.0 8.0 80 0.0 0 4 W 11 24 Regen ---
Feldberg/Schw. 1486 ------ 4.2 3.2 5.8 57 ---- --- 121 W 27 34 --- ---
Konstanz 443 1029.5 8.5 0.3 13.3 54 0.0 0 0 SO 5 8 --- ---
Kempten 705 1029.1 8.4 -1.3 12.8 53 0.0 0 0 SW 7 15 --- ---
Oberstdorf 806 ------ 3.3 -3.3 11.9 77 0.0 0 56 S 9 15 --- ---
Zugspitze 2960 ------ -7.9 -9.5 -6.3 91 ---- --- --- N 26 46 leichter Schneefall ---
Hohenpeißenberg 977 ------ 7.8 3.5 10.4 52 0.0 0 34 W 17 30 --- ---

 

  • Temperatur
  • Wetterzustand
  • Windrichtung und -geschwindigkeit
  • Luftdruck
  • relative Luftfeuchtigkeit
  • Sichtweite
  • Gesamtbedeckungsgrad
  • Niederschlag
  • Sonnenscheindauer

 Höhe:     m über NN
Luftd.:   auf Meereshöhe reduzierter Luftdruck in hPa
TEMP.:   Lufttemperatur in Grad Celsius
T-MIN:   Minimumtemperatur der Luft in 2m Höhe in Grad Celsius, von 18 UTC Vortag bis 06 UTC heute
T-MAX:  Maximumtemperatur der Luft in 2m Höhe in Grad Celsius, von 18 UTC Vortag bis 06 UTC heute
RR1:     Niederschlagsmenge, einstündig, mm ist gleich Liter pro
RR12:   Niederschlagsmenge, 12 stündig, 18 UTC Vortag bis 06 UTC heute in mm ist gleich Liter pro
SSS:     Gesamtschneehöhe
DD:      Windrichtung
FF:       Windgeschwindigkeit letztes 10-Minutenmittel in km/h
FX:       höchste Windspitze während der letzten Stunde in km/h
---:      Wert nicht vorhanden

 

2009-2019

Unwetterwarnungen

 

Radarbild          
aktueller Radarfilm Deutschland

Europa-Meteoalarm